createdAt,value
2022-09-04T00:01:43.135Z,5.23
2022-09-04T00:04:22.153Z,5.33
2022-09-04T00:07:13.573Z,4.90
2022-09-04T00:10:11.334Z,5.33
2022-09-04T00:12:49.327Z,5.30
2022-09-04T00:15:20.455Z,5.43
2022-09-04T00:17:55.981Z,5.40
2022-09-04T00:20:34.525Z,5.33
2022-09-04T00:23:14.263Z,5.27
2022-09-04T00:25:53.785Z,5.40
2022-09-04T00:28:41.626Z,5.73
2022-09-04T00:31:34.007Z,5.40
2022-09-04T00:34:27.931Z,5.43
2022-09-04T00:36:58.429Z,5.50
2022-09-04T00:39:40.756Z,5.20
2022-09-04T00:42:10.338Z,5.40
2022-09-04T00:45:07.756Z,5.63
2022-09-04T00:47:48.768Z,5.20
2022-09-04T00:50:47.230Z,4.80
2022-09-04T00:53:31.398Z,5.23
2022-09-04T00:56:12.252Z,4.70
2022-09-04T00:58:52.145Z,4.90
2022-09-04T01:01:23.981Z,4.97
2022-09-04T01:03:53.658Z,5.17
2022-09-04T01:06:21.717Z,5.17
2022-09-04T01:09:30.423Z,4.60
2022-09-04T01:12:13.069Z,5.37
2022-09-04T01:14:46.485Z,5.07
2022-09-04T01:17:27.709Z,5.00
2022-09-04T01:20:21.745Z,5.37
2022-09-04T01:23:10.191Z,4.80
2022-09-04T01:26:06.338Z,5.13
2022-09-04T01:28:47.220Z,4.93
2022-09-04T01:31:48.780Z,5.00
2022-09-04T01:34:49.529Z,5.90
2022-09-04T01:37:41.670Z,5.20
2022-09-04T01:40:36.482Z,5.10
2022-09-04T01:43:12.474Z,4.83
2022-09-04T01:46:01.095Z,5.23
2022-09-04T01:49:10.811Z,4.90
2022-09-04T01:52:05.616Z,4.53
2022-09-04T01:54:44.215Z,4.80
2022-09-04T01:57:15.747Z,4.80
2022-09-04T01:59:59.116Z,4.70
2022-09-04T02:02:28.812Z,4.70
2022-09-04T02:05:24.493Z,4.47
2022-09-04T02:08:18.447Z,4.70
2022-09-04T02:10:44.972Z,4.77
2022-09-04T02:13:44.971Z,4.80
2022-09-04T02:16:26.830Z,4.73
2022-09-04T02:19:12.354Z,4.57
2022-09-04T02:22:31.396Z,4.60
2022-09-04T02:25:44.488Z,4.70
2022-09-04T02:28:39.020Z,4.60
2022-09-04T02:31:19.176Z,4.57
2022-09-04T02:34:09.041Z,5.03
2022-09-04T02:36:46.863Z,4.67
2022-09-04T02:39:35.094Z,4.40
2022-09-04T02:42:13.037Z,4.80
2022-09-04T02:44:59.922Z,4.83
2022-09-04T02:47:32.810Z,4.53
2022-09-04T02:49:59.507Z,4.80
2022-09-04T02:52:41.847Z,4.70
2022-09-04T02:55:39.971Z,4.27
2022-09-04T02:58:29.293Z,4.33
2022-09-04T03:01:17.403Z,4.60
2022-09-04T03:03:46.787Z,4.53
2022-09-04T03:06:20.513Z,4.87
2022-09-04T03:08:51.891Z,4.33
2022-09-04T03:11:30.366Z,4.80
2022-09-04T03:14:04.909Z,4.63
2022-09-04T03:16:40.750Z,4.30
2022-09-04T03:19:16.558Z,4.27
2022-09-04T03:21:56.527Z,4.40
2022-09-04T03:24:27.639Z,4.40
2022-09-04T03:26:56.947Z,4.23
2022-09-04T03:29:41.004Z,4.37
2022-09-04T03:32:16.685Z,4.37
2022-09-04T03:35:14.397Z,4.40
2022-09-04T03:37:57.579Z,4.33
2022-09-04T03:40:32.983Z,4.20
2022-09-04T03:43:14.540Z,4.00
2022-09-04T03:45:49.957Z,4.60
2022-09-04T03:48:20.522Z,3.97
2022-09-04T03:51:26.761Z,4.40
2022-09-04T03:54:08.282Z,4.30
2022-09-04T03:56:43.843Z,4.00
2022-09-04T03:59:18.385Z,4.17
2022-09-04T04:02:06.586Z,4.27
2022-09-04T04:04:45.173Z,4.10
2022-09-04T04:07:17.823Z,4.20
2022-09-04T04:09:48.278Z,4.00
2022-09-04T04:12:18.999Z,4.30
2022-09-04T04:14:54.621Z,4.47
2022-09-04T04:18:19.696Z,3.90
2022-09-04T04:21:04.621Z,4.47
2022-09-04T04:23:56.525Z,4.33
2022-09-04T04:26:38.310Z,4.30
2022-09-04T04:29:27.784Z,4.17
2022-09-04T04:32:13.796Z,4.40
2022-09-04T04:35:04.155Z,4.60
2022-09-04T04:37:43.669Z,4.50
2022-09-04T04:40:39.499Z,4.00
2022-09-04T04:43:14.025Z,4.20
2022-09-04T04:46:05.488Z,4.17
2022-09-04T04:48:32.211Z,4.63
2022-09-04T04:50:59.417Z,3.83
2022-09-04T04:53:47.986Z,3.93
2022-09-04T04:56:50.847Z,4.10
2022-09-04T04:59:23.488Z,4.13
2022-09-04T05:02:04.807Z,4.40
2022-09-04T05:04:34.567Z,4.37
2022-09-04T05:07:19.599Z,4.50
2022-09-04T05:09:52.304Z,3.97
2022-09-04T05:12:51.973Z,4.57
2022-09-04T05:16:07.983Z,4.00
2022-09-04T05:18:48.276Z,4.13
2022-09-04T05:21:35.146Z,3.87
2022-09-04T05:24:01.652Z,4.57
2022-09-04T05:26:57.401Z,4.37
2022-09-04T05:29:32.282Z,4.23
2022-09-04T05:32:13.802Z,4.23
2022-09-04T05:35:02.775Z,3.63
2022-09-04T05:37:38.427Z,3.83
2022-09-04T05:40:19.985Z,4.33
2022-09-04T05:42:48.173Z,3.97
2022-09-04T05:45:23.950Z,3.93
2022-09-04T05:48:11.089Z,4.40
2022-09-04T05:50:49.517Z,4.87
2022-09-04T05:53:57.037Z,4.27
2022-09-04T05:56:44.267Z,4.87
2022-09-04T05:59:21.271Z,4.73
2022-09-04T06:02:15.824Z,4.67
2022-09-04T06:05:03.901Z,4.67
2022-09-04T06:07:50.757Z,4.40
2022-09-04T06:10:21.877Z,4.70
2022-09-04T06:12:57.833Z,4.50
2022-09-04T06:15:29.687Z,4.97
2022-09-04T06:18:30.035Z,5.17
2022-09-04T06:21:07.319Z,5.67
2022-09-04T06:23:49.114Z,5.13
2022-09-04T06:26:34.434Z,5.30
2022-09-04T06:29:05.889Z,5.40
2022-09-04T06:31:50.648Z,5.37
2022-09-04T06:34:23.177Z,5.67
2022-09-04T06:37:05.480Z,5.70
2022-09-04T06:39:47.426Z,5.33
2022-09-04T06:42:43.583Z,5.43
2022-09-04T06:45:28.669Z,5.47
2022-09-04T06:48:32.367Z,5.53
2022-09-04T06:51:21.902Z,5.17
2022-09-04T06:54:01.556Z,5.43
2022-09-04T06:56:49.834Z,5.63
2022-09-04T06:59:39.600Z,5.83
2022-09-04T07:02:44.685Z,6.20
2022-09-04T07:05:58.044Z,5.80
2022-09-04T07:08:46.449Z,5.87
2022-09-04T07:11:44.089Z,6.03
2022-09-04T07:14:41.437Z,6.37
2022-09-04T07:17:34.236Z,6.10
2022-09-04T07:20:15.483Z,5.90
2022-09-04T07:22:48.190Z,6.37
2022-09-04T07:25:26.348Z,5.30
2022-09-04T07:28:11.719Z,5.73
2022-09-04T07:30:53.945Z,6.03
2022-09-04T07:33:31.894Z,6.40
2022-09-04T07:36:07.992Z,6.47
2022-09-04T07:38:50.578Z,5.63
2022-09-04T07:41:42.039Z,5.97
2022-09-04T07:44:23.443Z,5.67
2022-09-04T07:47:01.287Z,5.33
2022-09-04T07:49:31.004Z,5.53
2022-09-04T07:52:07.839Z,5.80
2022-09-04T07:55:04.126Z,5.40
2022-09-04T07:57:54.865Z,5.50
2022-09-04T08:00:22.753Z,5.63
2022-09-04T08:02:58.403Z,5.50
2022-09-04T08:05:31.686Z,5.50
2022-09-04T08:08:17.946Z,5.53
2022-09-04T08:11:12.487Z,5.43
2022-09-04T08:13:54.295Z,5.43
2022-09-04T08:16:32.937Z,5.40
2022-09-04T08:19:31.280Z,5.07
2022-09-04T08:21:58.282Z,5.03
2022-09-04T08:24:28.026Z,5.90
2022-09-04T08:27:18.174Z,6.03
2022-09-04T08:29:45.528Z,5.53
2022-09-04T08:32:49.741Z,6.00
2022-09-04T08:35:22.716Z,5.80
2022-09-04T08:38:11.051Z,5.43
2022-09-04T08:40:59.339Z,5.80
2022-09-04T08:43:57.518Z,5.27
2022-09-04T08:46:47.420Z,5.33
2022-09-04T08:49:31.341Z,5.70
2022-09-04T08:52:19.383Z,5.27
2022-09-04T08:55:03.200Z,5.10
2022-09-04T08:57:43.057Z,5.23
2022-09-04T09:00:26.880Z,5.50
2022-09-04T09:03:11.512Z,5.17
2022-09-04T09:06:15.511Z,5.33
2022-09-04T09:08:50.975Z,4.77
2022-09-04T09:11:21.550Z,5.77
2022-09-04T09:14:02.526Z,5.50
2022-09-04T09:16:57.187Z,5.30
2022-09-04T09:20:00.149Z,5.57
2022-09-04T09:22:56.139Z,5.23
2022-09-04T09:25:44.779Z,5.00
2022-09-04T09:28:42.535Z,5.40
2022-09-04T09:31:30.461Z,4.90
2022-09-04T09:34:32.109Z,5.57
2022-09-04T09:37:10.761Z,5.33
2022-09-04T09:39:56.844Z,5.00
2022-09-04T09:42:50.218Z,5.00
2022-09-04T09:45:36.115Z,4.90
2022-09-04T09:48:11.922Z,4.90
2022-09-04T09:50:53.608Z,5.20
2022-09-04T09:53:46.861Z,4.70
2022-09-04T09:56:35.722Z,4.20
2022-09-04T09:59:19.826Z,5.03
2022-09-04T10:02:08.938Z,4.53
2022-09-04T10:04:50.295Z,4.90
2022-09-04T10:07:29.850Z,4.37
2022-09-04T10:10:03.093Z,4.40
2022-09-04T10:13:03.696Z,4.57
2022-09-04T10:15:50.243Z,5.00
2022-09-04T10:18:33.335Z,4.70
2022-09-04T10:21:21.682Z,4.43
2022-09-04T10:23:54.246Z,4.70
2022-09-04T10:26:48.260Z,4.50
2022-09-04T10:29:42.724Z,4.70
2022-09-04T10:32:28.041Z,4.70
2022-09-04T10:35:12.952Z,4.67
2022-09-04T10:38:05.579Z,4.73
2022-09-04T10:41:12.268Z,4.17
2022-09-04T10:44:15.215Z,4.63
2022-09-04T10:47:25.119Z,4.43
2022-09-04T10:50:12.820Z,3.90
2022-09-04T10:53:08.214Z,4.00
2022-09-04T10:55:42.467Z,4.37
2022-09-04T10:58:45.023Z,4.60
2022-09-04T11:01:35.679Z,4.27
2022-09-04T11:04:22.539Z,4.10
2022-09-04T11:07:12.314Z,4.10
2022-09-04T11:10:00.566Z,3.80
2022-09-04T11:12:57.963Z,4.57
2022-09-04T11:15:32.706Z,4.50
2022-09-04T11:18:19.241Z,4.10
2022-09-04T11:21:31.092Z,3.80
2022-09-04T11:24:20.991Z,4.37
2022-09-04T11:26:54.893Z,4.00
2022-09-04T11:29:55.874Z,3.83
2022-09-04T11:32:38.685Z,3.67
2022-09-04T11:35:33.335Z,3.83
2022-09-04T11:38:08.921Z,4.13
2022-09-04T11:40:58.271Z,3.93
2022-09-04T11:43:49.455Z,3.77
2022-09-04T11:46:41.460Z,3.77
2022-09-04T11:49:38.944Z,3.70
2022-09-04T11:52:44.266Z,4.10
2022-09-04T11:55:14.157Z,3.60
2022-09-04T11:57:48.621Z,3.73
2022-09-04T12:00:17.062Z,3.33
2022-09-04T12:03:13.167Z,4.07
2022-09-04T12:06:09.903Z,3.73
2022-09-04T12:08:39.373Z,3.40
2022-09-04T12:11:37.833Z,3.73
2022-09-04T12:14:04.349Z,3.50
2022-09-04T12:17:15.624Z,3.40
2022-09-04T12:19:58.403Z,3.60
2022-09-04T12:22:43.341Z,3.73
2022-09-04T12:25:34.264Z,3.63
2022-09-04T12:28:11.139Z,3.60
2022-09-04T12:30:44.231Z,3.50
2022-09-04T12:33:39.282Z,3.50
2022-09-04T12:36:24.374Z,3.67
2022-09-04T12:39:12.868Z,3.07
2022-09-04T12:41:59.706Z,3.30
2022-09-04T12:44:32.604Z,3.93
2022-09-04T12:47:23.718Z,3.20
2022-09-04T12:49:50.317Z,3.37
2022-09-04T12:52:28.760Z,3.10
2022-09-04T12:55:37.131Z,3.60
2022-09-04T12:58:14.607Z,3.10
2022-09-04T13:01:16.517Z,3.40
2022-09-04T13:04:01.193Z,3.23
2022-09-04T13:06:40.816Z,3.50
2022-09-04T13:09:16.387Z,3.20
2022-09-04T13:11:54.886Z,3.50
2022-09-04T13:14:43.009Z,3.37
2022-09-04T13:17:27.568Z,3.20
2022-09-04T13:20:12.772Z,3.10
2022-09-04T13:22:46.617Z,3.13
2022-09-04T13:25:27.326Z,2.87
2022-09-04T13:28:17.047Z,3.00
2022-09-04T13:31:00.070Z,2.97
2022-09-04T13:34:01.519Z,2.90
2022-09-04T13:36:35.499Z,2.70
2022-09-04T13:39:34.732Z,2.97
2022-09-04T13:42:10.908Z,2.87
2022-09-04T13:44:50.981Z,3.00
2022-09-04T13:47:31.954Z,3.00
2022-09-04T13:50:11.137Z,3.00
2022-09-04T13:53:02.913Z,3.17
2022-09-04T13:55:38.970Z,3.03
2022-09-04T13:58:13.846Z,2.60
2022-09-04T14:00:56.917Z,3.07
2022-09-04T14:03:35.927Z,2.80
2022-09-04T14:06:05.528Z,2.90
2022-09-04T14:08:33.595Z,2.80
2022-09-04T14:11:06.295Z,2.83
2022-09-04T14:13:44.753Z,2.70
2022-09-04T14:16:14.479Z,2.93
2022-09-04T14:18:57.070Z,2.70
2022-09-04T14:21:32.529Z,3.20
2022-09-04T14:24:08.014Z,3.20
2022-09-04T14:27:01.715Z,3.00
2022-09-04T14:29:37.740Z,3.00
2022-09-04T14:32:19.886Z,3.20
2022-09-04T14:34:58.942Z,2.90
2022-09-04T14:37:57.839Z,3.10
2022-09-04T14:40:34.325Z,3.03
2022-09-04T14:43:25.751Z,3.23
2022-09-04T14:46:04.819Z,2.87
2022-09-04T14:48:40.474Z,3.00
2022-09-04T14:51:15.292Z,2.90
2022-09-04T14:53:48.304Z,2.83
2022-09-04T14:56:24.249Z,2.70
2022-09-04T14:59:07.157Z,3.00
2022-09-04T15:01:37.076Z,2.87
2022-09-04T15:04:20.620Z,3.00
2022-09-04T15:07:10.757Z,2.70
2022-09-04T15:09:39.381Z,2.93
2022-09-04T15:12:34.972Z,3.17
2022-09-04T15:15:20.473Z,2.83
2022-09-04T15:18:01.788Z,2.83
2022-09-04T15:20:29.775Z,2.83
2022-09-04T15:22:59.777Z,2.73
2022-09-04T15:25:59.457Z,2.83
2022-09-04T15:28:34.524Z,2.70
2022-09-04T15:31:16.342Z,2.47
2022-09-04T15:33:45.561Z,2.73
2022-09-04T15:36:18.378Z,2.47
2022-09-04T15:38:51.865Z,2.90
2022-09-04T15:41:25.718Z,2.77
2022-09-04T15:44:11.118Z,2.80
2022-09-04T15:46:50.515Z,2.73
2022-09-04T15:49:58.660Z,3.10
2022-09-04T15:52:42.411Z,2.70
2022-09-04T15:55:09.005Z,2.93
2022-09-04T15:57:56.036Z,2.73
2022-09-04T16:00:26.402Z,2.87
2022-09-04T16:03:06.905Z,3.10
2022-09-04T16:05:47.234Z,2.83
2022-09-04T16:08:36.468Z,2.80
2022-09-04T16:11:12.374Z,3.00
2022-09-04T16:13:50.102Z,2.73
2022-09-04T16:16:19.439Z,3.20
2022-09-04T16:19:12.419Z,2.97
2022-09-04T16:21:48.707Z,3.00
2022-09-04T16:24:32.424Z,3.30
2022-09-04T16:26:59.510Z,3.43
2022-09-04T16:29:30.397Z,3.30
2022-09-04T16:31:57.959Z,3.27
2022-09-04T16:34:28.701Z,3.20
2022-09-04T16:37:01.975Z,2.93
2022-09-04T16:39:44.180Z,3.00
2022-09-04T16:42:21.993Z,2.97
2022-09-04T16:45:13.625Z,2.87
2022-09-04T16:47:52.030Z,2.87
2022-09-04T16:50:24.993Z,3.00
2022-09-04T16:53:13.334Z,2.93
2022-09-04T16:55:58.143Z,3.00
2022-09-04T16:58:35.783Z,2.70
2022-09-04T17:01:13.814Z,2.83
2022-09-04T17:04:12.569Z,2.33
2022-09-04T17:07:21.483Z,2.83
2022-09-04T17:10:03.184Z,3.00
2022-09-04T17:12:38.992Z,3.00
2022-09-04T17:15:48.548Z,3.10
2022-09-04T17:18:22.577Z,2.97
2022-09-04T17:22:07.214Z,2.80
2022-09-04T17:28:56.903Z,2.87
2022-09-04T17:29:14.609Z,2.73
2022-09-04T17:29:36.181Z,2.60
2022-09-04T17:34:31.461Z,2.50
2022-09-04T17:40:35.641Z,3.00
2022-09-04T17:40:56.105Z,2.90
2022-09-04T17:41:40.013Z,2.80
2022-09-04T17:44:29.469Z,2.80
2022-09-04T17:47:13.725Z,2.90
2022-09-04T17:49:46.815Z,2.80
2022-09-04T17:52:22.101Z,2.80
2022-09-04T17:54:49.614Z,2.80
2022-09-04T17:57:26.033Z,2.80
2022-09-04T18:00:04.798Z,2.90
2022-09-04T18:02:58.800Z,2.90
2022-09-04T18:05:36.493Z,2.50
2022-09-04T18:08:24.795Z,2.70
2022-09-04T18:11:12.508Z,2.70
2022-09-04T18:13:53.376Z,2.57
2022-09-04T18:16:35.267Z,3.10
2022-09-04T18:19:20.351Z,3.27
2022-09-04T18:22:25.823Z,2.87
2022-09-04T18:25:17.247Z,2.90
2022-09-04T18:28:15.786Z,3.10
2022-09-04T18:37:11.980Z,3.00
2022-09-04T18:37:15.972Z,3.00
2022-09-04T18:37:45.857Z,3.07
2022-09-04T18:40:12.659Z,3.07
2022-09-04T18:50:22.854Z,3.20
2022-09-04T18:50:33.083Z,2.93
2022-09-04T18:50:48.706Z,3.30
2022-09-04T18:51:31.175Z,3.27
2022-09-04T18:54:09.597Z,3.20
2022-09-04T18:56:42.416Z,3.40
2022-09-04T18:59:25.213Z,3.10
2022-09-04T19:02:19.003Z,2.87
2022-09-04T19:04:56.080Z,2.97
2022-09-04T19:07:41.902Z,3.00
2022-09-04T19:10:18.828Z,3.20
2022-09-04T19:13:08.196Z,3.20
2022-09-04T19:16:00.057Z,3.20
2022-09-04T19:18:43.625Z,3.10
2022-09-04T19:21:14.762Z,3.13
2022-09-04T19:23:44.531Z,3.20
2022-09-04T19:26:21.049Z,3.50
2022-09-04T19:28:53.084Z,2.90
2022-09-04T19:31:32.211Z,3.23
2022-09-04T19:34:23.183Z,3.13
2022-09-04T19:37:04.973Z,3.50
2022-09-04T19:46:02.084Z,3.33
2022-09-04T19:46:18.700Z,3.53
2022-09-04T19:46:29.762Z,2.87
2022-09-04T19:50:48.810Z,3.50
2022-09-04T19:53:31.034Z,3.97
2022-09-04T19:55:23.945Z,3.50
2022-09-04T19:58:03.248Z,3.60
2022-09-04T20:00:42.257Z,3.00
2022-09-04T20:03:29.802Z,3.40
2022-09-04T20:06:19.735Z,3.60
2022-09-04T20:08:54.978Z,3.37
2022-09-04T20:11:43.347Z,3.50
2022-09-04T20:14:30.107Z,4.00
2022-09-04T20:17:00.216Z,3.70
2022-09-04T20:19:37.546Z,3.90
2022-09-04T20:22:32.060Z,3.97
2022-09-04T20:25:07.685Z,3.40
2022-09-04T20:27:40.395Z,3.50
2022-09-04T20:30:24.754Z,3.67
2022-09-04T20:33:06.583Z,3.40
2022-09-04T20:35:46.730Z,3.53
2022-09-04T20:38:30.510Z,3.70
2022-09-04T20:41:02.393Z,3.80
2022-09-04T20:43:51.115Z,4.10
2022-09-04T20:49:10.832Z,4.23
2022-09-04T20:52:53.679Z,3.80
2022-09-04T20:52:58.601Z,4.13
2022-09-04T20:55:49.985Z,3.60
2022-09-04T21:03:07.738Z,3.50
2022-09-04T21:03:19.849Z,3.83
2022-09-04T21:04:42.700Z,4.30
2022-09-04T21:07:19.578Z,4.13
2022-09-04T21:09:58.697Z,3.70
2022-09-04T21:12:46.391Z,3.60
2022-09-04T21:15:46.892Z,4.00
2022-09-04T21:18:19.886Z,3.90
2022-09-04T21:21:14.406Z,3.80
2022-09-04T21:24:06.942Z,4.30
2022-09-04T21:26:54.385Z,3.97
2022-09-04T21:29:26.730Z,4.20
2022-09-04T21:32:23.153Z,4.03
2022-09-04T21:35:00.834Z,3.80
2022-09-04T21:37:46.674Z,4.03
2022-09-04T21:40:52.729Z,3.93
2022-09-04T21:43:45.501Z,4.03
2022-09-04T21:46:15.095Z,3.80
2022-09-04T21:49:00.937Z,4.07
2022-09-04T21:51:54.377Z,4.47
2022-09-04T21:59:43.880Z,3.83
2022-09-04T22:02:31.820Z,4.33
2022-09-04T22:02:35.905Z,4.03
2022-09-04T22:04:27.546Z,3.97
2022-09-04T22:09:30.239Z,4.10
2022-09-04T22:13:32.891Z,4.10
2022-09-04T22:13:48.238Z,4.20
2022-09-04T22:16:49.281Z,4.20
2022-09-04T22:19:51.199Z,4.27
2022-09-04T22:22:40.671Z,5.00
2022-09-04T22:25:19.444Z,4.27
2022-09-04T22:28:08.317Z,4.20
2022-09-04T22:30:57.203Z,4.17
2022-09-04T22:34:16.053Z,4.37
2022-09-04T22:37:00.723Z,4.30
2022-09-04T22:39:42.816Z,4.40
2022-09-04T22:42:25.171Z,4.70
2022-09-04T22:45:10.356Z,4.00
2022-09-04T22:47:59.007Z,4.40
2022-09-04T22:50:49.369Z,4.13
2022-09-04T22:53:35.792Z,4.53
2022-09-04T22:56:24.093Z,4.30
2022-09-04T22:59:25.619Z,3.93
2022-09-04T23:02:54.173Z,4.30
2022-09-04T23:05:33.906Z,4.20
2022-09-04T23:13:53.998Z,4.32
2022-09-04T23:14:01.715Z,4.30
2022-09-04T23:14:29.307Z,4.73
2022-09-04T23:17:05.308Z,4.47
2022-09-04T23:24:41.091Z,4.13
2022-09-04T23:26:41.493Z,4.57
2022-09-04T23:26:42.223Z,4.10
2022-09-04T23:28:59.109Z,4.20
2022-09-04T23:31:43.894Z,4.73
2022-09-04T23:34:39.684Z,4.43
2022-09-04T23:37:25.765Z,4.67
2022-09-04T23:40:24.317Z,4.63
2022-09-04T23:43:18.849Z,4.90
2022-09-04T23:46:33.634Z,4.90
2022-09-04T23:49:23.913Z,5.03
2022-09-04T23:52:26.540Z,5.30
2022-09-04T23:55:28.484Z,4.60
2022-09-04T23:59:09.107Z,5.00
